sensor_id;sensor_type;location;lat;lon;timestamp;temperature;humidity
2463;DHT22;1243;54.298;10.172;2023-02-20T00:01:14;5.40;1.00
2463;DHT22;1243;54.298;10.172;2023-02-20T00:03:39;5.50;1.00
2463;DHT22;1243;54.298;10.172;2023-02-20T00:06:05;5.40;1.00
2463;DHT22;1243;54.298;10.172;2023-02-20T00:08:31;5.40;1.00
2463;DHT22;1243;54.298;10.172;2023-02-20T00:10:56;5.50;1.00
2463;DHT22;1243;54.298;10.172;2023-02-20T00:13:22;5.50;1.00
2463;DHT22;1243;54.298;10.172;2023-02-20T00:15:48;5.40;1.00
2463;DHT22;1243;54.298;10.172;2023-02-20T00:18:14;5.40;1.00
2463;DHT22;1243;54.298;10.172;2023-02-20T00:20:39;5.40;1.00
2463;DHT22;1243;54.298;10.172;2023-02-20T00:23:05;5.40;1.00
2463;DHT22;1243;54.298;10.172;2023-02-20T00:25:31;5.40;1.00
2463;DHT22;1243;54.298;10.172;2023-02-20T00:27:56;5.40;1.00
2463;DHT22;1243;54.298;10.172;2023-02-20T00:30:23;5.40;1.00
2463;DHT22;1243;54.298;10.172;2023-02-20T00:32:51;5.40;1.00
2463;DHT22;1243;54.298;10.172;2023-02-20T00:35:18;5.40;1.00
2463;DHT22;1243;54.298;10.172;2023-02-20T00:37:48;5.40;1.00
2463;DHT22;1243;54.298;10.172;2023-02-20T00:40:15;5.40;1.00
2463;DHT22;1243;54.298;10.172;2023-02-20T00:42:41;5.40;1.00
2463;DHT22;1243;54.298;10.172;2023-02-20T00:45:07;5.40;1.00
2463;DHT22;1243;54.298;10.172;2023-02-20T00:47:33;5.40;1.00
2463;DHT22;1243;54.298;10.172;2023-02-20T00:49:59;5.40;1.00
2463;DHT22;1243;54.298;10.172;2023-02-20T00:52:25;5.40;1.00
2463;DHT22;1243;54.298;10.172;2023-02-20T00:54:50;5.40;1.00
2463;DHT22;1243;54.298;10.172;2023-02-20T00:57:16;5.40;1.00
2463;DHT22;1243;54.298;10.172;2023-02-20T00:59:42;5.40;1.00
2463;DHT22;1243;54.298;10.172;2023-02-20T01:02:08;5.40;1.00
2463;DHT22;1243;54.298;10.172;2023-02-20T01:04:34;5.50;1.00
2463;DHT22;1243;54.298;10.172;2023-02-20T01:06:59;5.40;1.00
2463;DHT22;1243;54.298;10.172;2023-02-20T01:09:25;5.40;1.00
2463;DHT22;1243;54.298;10.172;2023-02-20T01:11:53;5.40;1.00
2463;DHT22;1243;54.298;10.172;2023-02-20T01:14:19;5.40;1.00
2463;DHT22;1243;54.298;10.172;2023-02-20T01:16:45;5.40;1.00
2463;DHT22;1243;54.298;10.172;2023-02-20T01:19:11;5.40;1.00
2463;DHT22;1243;54.298;10.172;2023-02-20T01:21:37;5.50;1.00
2463;DHT22;1243;54.298;10.172;2023-02-20T01:24:03;5.50;1.00
2463;DHT22;1243;54.298;10.172;2023-02-20T01:26:29;5.50;1.00
2463;DHT22;1243;54.298;10.172;2023-02-20T01:28:55;5.50;1.00
2463;DHT22;1243;54.298;10.172;2023-02-20T01:31:20;5.50;1.00
2463;DHT22;1243;54.298;10.172;2023-02-20T01:33:46;5.50;1.00
2463;DHT22;1243;54.298;10.172;2023-02-20T01:36:12;5.50;1.00
2463;DHT22;1243;54.298;10.172;2023-02-20T01:38:40;5.40;1.00
2463;DHT22;1243;54.298;10.172;2023-02-20T01:41:08;5.50;1.00
2463;DHT22;1243;54.298;10.172;2023-02-20T01:43:34;5.50;1.00
2463;DHT22;1243;54.298;10.172;2023-02-20T01:51:31;5.50;1.00
2463;DHT22;1243;54.298;10.172;2023-02-20T01:53:58;5.50;1.00
2463;DHT22;1243;54.298;10.172;2023-02-20T01:56:24;5.50;1.00
2463;DHT22;1243;54.298;10.172;2023-02-20T01:58:50;5.50;1.00
2463;DHT22;1243;54.298;10.172;2023-02-20T02:01:16;5.50;1.00
2463;DHT22;1243;54.298;10.172;2023-02-20T02:03:44;5.60;1.00
2463;DHT22;1243;54.298;10.172;2023-02-20T02:06:14;5.60;1.00
2463;DHT22;1243;54.298;10.172;2023-02-20T02:08:43;5.60;1.00
2463;DHT22;1243;54.298;10.172;2023-02-20T02:11:15;5.60;1.00
2463;DHT22;1243;54.298;10.172;2023-02-20T02:13:42;5.60;1.00
2463;DHT22;1243;54.298;10.172;2023-02-20T02:28:02;5.60;1.00
2463;DHT22;1243;54.298;10.172;2023-02-20T02:44:35;5.70;1.00
2463;DHT22;1243;54.298;10.172;2023-02-20T02:47:06;5.70;1.00
2463;DHT22;1243;54.298;10.172;2023-02-20T02:50:05;5.80;1.00
2463;DHT22;1243;54.298;10.172;2023-02-20T02:52:33;5.70;1.00
2463;DHT22;1243;54.298;10.172;2023-02-20T02:55:07;5.80;1.00
2463;DHT22;1243;54.298;10.172;2023-02-20T02:57:33;5.80;1.00
2463;DHT22;1243;54.298;10.172;2023-02-20T03:00:23;5.80;1.00
2463;DHT22;1243;54.298;10.172;2023-02-20T03:02:59;5.80;4.40
2463;DHT22;1243;54.298;10.172;2023-02-20T03:05:45;5.90;20.20
2463;DHT22;1243;54.298;10.172;2023-02-20T03:08:20;5.90;29.30
2463;DHT22;1243;54.298;10.172;2023-02-20T03:10:59;5.90;29.20
2463;DHT22;1243;54.298;10.172;2023-02-20T03:13:28;5.90;41.00
2463;DHT22;1243;54.298;10.172;2023-02-20T03:16:16;6.00;45.10
2463;DHT22;1243;54.298;10.172;2023-02-20T03:18:45;6.00;47.50
2463;DHT22;1243;54.298;10.172;2023-02-20T03:21:16;6.00;54.20
2463;DHT22;1243;54.298;10.172;2023-02-20T03:23:46;6.10;57.70
2463;DHT22;1243;54.298;10.172;2023-02-20T03:26:17;6.10;61.90
2463;DHT22;1243;54.298;10.172;2023-02-20T03:29:12;6.10;60.90
2463;DHT22;1243;54.298;10.172;2023-02-20T03:31:51;6.20;62.70
2463;DHT22;1243;54.298;10.172;2023-02-20T03:34:37;6.30;60.40
2463;DHT22;1243;54.298;10.172;2023-02-20T03:37:25;6.40;55.70
2463;DHT22;1243;54.298;10.172;2023-02-20T03:40:12;6.50;43.80
2463;DHT22;1243;54.298;10.172;2023-02-20T03:43:01;6.50;34.30
2463;DHT22;1243;54.298;10.172;2023-02-20T03:45:46;6.50;29.70
2463;DHT22;1243;54.298;10.172;2023-02-20T03:48:32;6.50;29.70
2463;DHT22;1243;54.298;10.172;2023-02-20T03:51:00;6.60;29.30
2463;DHT22;1243;54.298;10.172;2023-02-20T03:53:39;6.60;24.60
2463;DHT22;1243;54.298;10.172;2023-02-20T03:56:11;6.70;18.30
2463;DHT22;1243;54.298;10.172;2023-02-20T03:58:42;6.70;15.60
2463;DHT22;1243;54.298;10.172;2023-02-20T04:01:10;6.70;10.90
2463;DHT22;1243;54.298;10.172;2023-02-20T04:03:43;6.80;6.80
2463;DHT22;1243;54.298;10.172;2023-02-20T04:06:11;6.80;1.00
2463;DHT22;1243;54.298;10.172;2023-02-20T04:11:51;6.90;1.00
2463;DHT22;1243;54.298;10.172;2023-02-20T04:14:18;6.90;1.00
2463;DHT22;1243;54.298;10.172;2023-02-20T04:16:49;7.00;1.00
2463;DHT22;1243;54.298;10.172;2023-02-20T04:19:15;7.00;1.00
2463;DHT22;1243;54.298;10.172;2023-02-20T04:21:51;7.10;1.00
2463;DHT22;1243;54.298;10.172;2023-02-20T04:24:30;7.10;1.00
2463;DHT22;1243;54.298;10.172;2023-02-20T04:26:59;7.20;1.00
2463;DHT22;1243;54.298;10.172;2023-02-20T04:29:25;7.20;1.00
2463;DHT22;1243;54.298;10.172;2023-02-20T04:31:51;7.20;1.00
2463;DHT22;1243;54.298;10.172;2023-02-20T04:34:16;7.30;1.00
2463;DHT22;1243;54.298;10.172;2023-02-20T04:36:42;7.20;1.00
2463;DHT22;1243;54.298;10.172;2023-02-20T04:39:08;7.30;1.00
2463;DHT22;1243;54.298;10.172;2023-02-20T04:41:34;7.30;1.00
2463;DHT22;1243;54.298;10.172;2023-02-20T04:43:59;7.30;1.00
2463;DHT22;1243;54.298;10.172;2023-02-20T04:46:44;7.30;1.00
2463;DHT22;1243;54.298;10.172;2023-02-20T04:49:09;7.30;1.00
2463;DHT22;1243;54.298;10.172;2023-02-20T04:51:35;7.30;1.00
2463;DHT22;1243;54.298;10.172;2023-02-20T04:54:01;7.30;1.00
2463;DHT22;1243;54.298;10.172;2023-02-20T04:56:26;7.30;1.00
2463;DHT22;1243;54.298;10.172;2023-02-20T04:58:52;7.30;1.00
2463;DHT22;1243;54.298;10.172;2023-02-20T05:01:18;7.30;1.00
2463;DHT22;1243;54.298;10.172;2023-02-20T05:03:44;7.30;1.00
2463;DHT22;1243;54.298;10.172;2023-02-20T05:06:09;7.30;1.00
2463;DHT22;1243;54.298;10.172;2023-02-20T05:08:35;7.30;1.00
2463;DHT22;1243;54.298;10.172;2023-02-20T05:11:01;7.20;1.00
2463;DHT22;1243;54.298;10.172;2023-02-20T05:13:26;7.20;1.00
2463;DHT22;1243;54.298;10.172;2023-02-20T05:15:52;7.20;1.00
2463;DHT22;1243;54.298;10.172;2023-02-20T05:18:27;7.20;1.00
2463;DHT22;1243;54.298;10.172;2023-02-20T05:20:54;7.20;1.00
2463;DHT22;1243;54.298;10.172;2023-02-20T05:23:38;7.20;1.00
2463;DHT22;1243;54.298;10.172;2023-02-20T05:26:11;7.20;1.00
2463;DHT22;1243;54.298;10.172;2023-02-20T05:28:38;7.20;1.00
2463;DHT22;1243;54.298;10.172;2023-02-20T05:31:06;7.30;1.00
2463;DHT22;1243;54.298;10.172;2023-02-20T05:33:32;7.30;1.00
2463;DHT22;1243;54.298;10.172;2023-02-20T05:35:59;7.40;1.00
2463;DHT22;1243;54.298;10.172;2023-02-20T05:38:25;7.40;1.00
2463;DHT22;1243;54.298;10.172;2023-02-20T05:40:51;7.40;1.00
2463;DHT22;1243;54.298;10.172;2023-02-20T05:43:17;7.40;1.00
2463;DHT22;1243;54.298;10.172;2023-02-20T05:45:43;7.40;1.00
2463;DHT22;1243;54.298;10.172;2023-02-20T05:48:11;7.40;1.00
2463;DHT22;1243;54.298;10.172;2023-02-20T05:50:36;7.50;1.00
2463;DHT22;1243;54.298;10.172;2023-02-20T05:53:02;7.50;1.00
2463;DHT22;1243;54.298;10.172;2023-02-20T05:55:28;7.50;1.00
2463;DHT22;1243;54.298;10.172;2023-02-20T05:57:55;7.50;1.00
2463;DHT22;1243;54.298;10.172;2023-02-20T06:00:21;7.60;1.00
2463;DHT22;1243;54.298;10.172;2023-02-20T06:02:47;7.60;1.00
2463;DHT22;1243;54.298;10.172;2023-02-20T06:05:13;7.60;1.00
2463;DHT22;1243;54.298;10.172;2023-02-20T06:07:41;7.60;1.00
2463;DHT22;1243;54.298;10.172;2023-02-20T06:10:07;7.60;1.00
2463;DHT22;1243;54.298;10.172;2023-02-20T06:12:33;7.60;1.00
2463;DHT22;1243;54.298;10.172;2023-02-20T06:14:58;7.60;1.00
2463;DHT22;1243;54.298;10.172;2023-02-20T06:17:24;7.60;1.00
2463;DHT22;1243;54.298;10.172;2023-02-20T06:19:50;7.60;1.00
2463;DHT22;1243;54.298;10.172;2023-02-20T06:22:16;7.70;1.00
2463;DHT22;1243;54.298;10.172;2023-02-20T06:24:46;7.70;1.00
2463;DHT22;1243;54.298;10.172;2023-02-20T06:27:13;7.70;1.00
2463;DHT22;1243;54.298;10.172;2023-02-20T06:29:38;7.70;1.00
2463;DHT22;1243;54.298;10.172;2023-02-20T06:32:04;7.70;1.00
2463;DHT22;1243;54.298;10.172;2023-02-20T06:34:30;7.70;1.00
2463;DHT22;1243;54.298;10.172;2023-02-20T06:36:59;7.80;1.00
2463;DHT22;1243;54.298;10.172;2023-02-20T06:39:27;7.80;1.00
2463;DHT22;1243;54.298;10.172;2023-02-20T06:41:54;7.80;1.00
2463;DHT22;1243;54.298;10.172;2023-02-20T06:44:20;7.80;1.00
2463;DHT22;1243;54.298;10.172;2023-02-20T06:46:45;7.80;1.00
2463;DHT22;1243;54.298;10.172;2023-02-20T06:49:11;7.90;1.00
2463;DHT22;1243;54.298;10.172;2023-02-20T06:51:37;7.80;1.00
2463;DHT22;1243;54.298;10.172;2023-02-20T06:54:05;7.90;1.00
2463;DHT22;1243;54.298;10.172;2023-02-20T06:56:33;7.90;1.00
2463;DHT22;1243;54.298;10.172;2023-02-20T06:58:59;8.00;1.00
2463;DHT22;1243;54.298;10.172;2023-02-20T07:01:28;8.00;1.00
2463;DHT22;1243;54.298;10.172;2023-02-20T07:03:54;8.00;1.00
2463;DHT22;1243;54.298;10.172;2023-02-20T07:06:21;7.90;1.00
2463;DHT22;1243;54.298;10.172;2023-02-20T07:08:48;7.90;1.00
2463;DHT22;1243;54.298;10.172;2023-02-20T07:11:15;8.00;1.00
2463;DHT22;1243;54.298;10.172;2023-02-20T07:13:41;7.90;1.00
2463;DHT22;1243;54.298;10.172;2023-02-20T07:16:07;8.00;1.00
2463;DHT22;1243;54.298;10.172;2023-02-20T07:18:32;8.00;1.00
2463;DHT22;1243;54.298;10.172;2023-02-20T07:20:58;8.00;1.00
2463;DHT22;1243;54.298;10.172;2023-02-20T07:23:24;8.00;1.00
2463;DHT22;1243;54.298;10.172;2023-02-20T07:25:50;8.00;1.00
2463;DHT22;1243;54.298;10.172;2023-02-20T07:28:16;7.90;1.00
2463;DHT22;1243;54.298;10.172;2023-02-20T07:30:43;8.00;1.00
2463;DHT22;1243;54.298;10.172;2023-02-20T07:33:09;8.00;1.00
2463;DHT22;1243;54.298;10.172;2023-02-20T07:35:35;8.10;1.00
2463;DHT22;1243;54.298;10.172;2023-02-20T07:38:01;8.10;1.00
2463;DHT22;1243;54.298;10.172;2023-02-20T07:40:26;8.10;1.00
2463;DHT22;1243;54.298;10.172;2023-02-20T07:42:52;8.10;1.00
2463;DHT22;1243;54.298;10.172;2023-02-20T07:45:18;8.10;1.00
2463;DHT22;1243;54.298;10.172;2023-02-20T07:47:44;8.10;1.00
2463;DHT22;1243;54.298;10.172;2023-02-20T07:50:10;8.10;1.00
2463;DHT22;1243;54.298;10.172;2023-02-20T07:52:35;8.20;1.00
2463;DHT22;1243;54.298;10.172;2023-02-20T07:55:01;8.10;1.00
2463;DHT22;1243;54.298;10.172;2023-02-20T07:57:28;8.20;1.00
2463;DHT22;1243;54.298;10.172;2023-02-20T07:59:54;8.20;1.00
2463;DHT22;1243;54.298;10.172;2023-02-20T08:02:19;8.20;1.00
2463;DHT22;1243;54.298;10.172;2023-02-20T08:04:45;8.20;1.00
2463;DHT22;1243;54.298;10.172;2023-02-20T08:07:11;8.20;1.00
2463;DHT22;1243;54.298;10.172;2023-02-20T08:09:36;8.20;1.00
2463;DHT22;1243;54.298;10.172;2023-02-20T08:12:02;8.20;1.00
2463;DHT22;1243;54.298;10.172;2023-02-20T08:14:28;8.20;1.00
2463;DHT22;1243;54.298;10.172;2023-02-20T08:16:55;8.20;1.00
2463;DHT22;1243;54.298;10.172;2023-02-20T08:19:21;8.20;1.00
2463;DHT22;1243;54.298;10.172;2023-02-20T08:21:47;8.20;1.00
2463;DHT22;1243;54.298;10.172;2023-02-20T08:24:12;8.30;1.00
2463;DHT22;1243;54.298;10.172;2023-02-20T08:26:45;8.30;1.00
2463;DHT22;1243;54.298;10.172;2023-02-20T08:29:12;8.20;1.00
2463;DHT22;1243;54.298;10.172;2023-02-20T08:31:38;8.20;1.00
2463;DHT22;1243;54.298;10.172;2023-02-20T08:34:03;8.20;1.00
2463;DHT22;1243;54.298;10.172;2023-02-20T08:36:29;8.30;1.00
2463;DHT22;1243;54.298;10.172;2023-02-20T08:38:55;8.30;1.00
2463;DHT22;1243;54.298;10.172;2023-02-20T08:41:21;8.30;1.00
2463;DHT22;1243;54.298;10.172;2023-02-20T08:43:47;8.30;1.00
2463;DHT22;1243;54.298;10.172;2023-02-20T08:46:13;8.30;1.00
2463;DHT22;1243;54.298;10.172;2023-02-20T08:48:39;8.30;1.00
2463;DHT22;1243;54.298;10.172;2023-02-20T08:51:06;8.30;1.00
2463;DHT22;1243;54.298;10.172;2023-02-20T08:53:32;8.30;1.00
2463;DHT22;1243;54.298;10.172;2023-02-20T08:55:58;8.40;5.30
2463;DHT22;1243;54.298;10.172;2023-02-20T08:58:25;8.30;4.90
2463;DHT22;1243;54.298;10.172;2023-02-20T09:00:51;8.40;9.10
2463;DHT22;1243;54.298;10.172;2023-02-20T09:03:17;8.40;4.40
2463;DHT22;1243;54.298;10.172;2023-02-20T09:05:43;8.50;3.60
2463;DHT22;1243;54.298;10.172;2023-02-20T09:08:09;8.50;2.10
2463;DHT22;1243;54.298;10.172;2023-02-20T09:10:35;8.50;6.90
2463;DHT22;1243;54.298;10.172;2023-02-20T09:13:01;8.60;11.00
2463;DHT22;1243;54.298;10.172;2023-02-20T09:15:27;8.60;8.70
2463;DHT22;1243;54.298;10.172;2023-02-20T09:17:54;8.70;2.20
2463;DHT22;1243;54.298;10.172;2023-02-20T09:20:20;8.70;1.00
2463;DHT22;1243;54.298;10.172;2023-02-20T09:22:48;8.70;2.60
2463;DHT22;1243;54.298;10.172;2023-02-20T09:25:15;8.70;4.10
2463;DHT22;1243;54.298;10.172;2023-02-20T09:27:41;8.70;4.00
2463;DHT22;1243;54.298;10.172;2023-02-20T09:30:07;8.70;3.70
2463;DHT22;1243;54.298;10.172;2023-02-20T09:32:33;8.80;3.80
2463;DHT22;1243;54.298;10.172;2023-02-20T09:34:59;8.80;1.00
2463;DHT22;1243;54.298;10.172;2023-02-20T09:37:25;8.80;1.00
2463;DHT22;1243;54.298;10.172;2023-02-20T09:39:50;8.90;2.10
2463;DHT22;1243;54.298;10.172;2023-02-20T09:45:08;9.00;1.00
2463;DHT22;1243;54.298;10.172;2023-02-20T09:50:50;9.20;1.00
2463;DHT22;1243;54.298;10.172;2023-02-20T09:55:49;9.20;1.00
2463;DHT22;1243;54.298;10.172;2023-02-20T09:58:26;9.20;1.00
2463;DHT22;1243;54.298;10.172;2023-02-20T10:00:57;9.20;1.00
2463;DHT22;1243;54.298;10.172;2023-02-20T10:04:01;9.20;1.00
2463;DHT22;1243;54.298;10.172;2023-02-20T10:06:22;9.30;1.00
2463;DHT22;1243;54.298;10.172;2023-02-20T10:08:50;9.30;1.00
2463;DHT22;1243;54.298;10.172;2023-02-20T10:14:23;9.30;1.00
2463;DHT22;1243;54.298;10.172;2023-02-20T10:19:51;9.20;1.00
2463;DHT22;1243;54.298;10.172;2023-02-20T10:22:31;9.20;1.00
2463;DHT22;1243;54.298;10.172;2023-02-20T10:27:57;9.20;1.00
2463;DHT22;1243;54.298;10.172;2023-02-20T10:33:43;9.20;1.00
2463;DHT22;1243;54.298;10.172;2023-02-20T10:36:11;9.10;1.00
2463;DHT22;1243;54.298;10.172;2023-02-20T10:39:04;9.20;1.00
2463;DHT22;1243;54.298;10.172;2023-02-20T10:50:01;9.30;1.00
2463;DHT22;1243;54.298;10.172;2023-02-20T10:52:40;9.30;1.00
2463;DHT22;1243;54.298;10.172;2023-02-20T11:00:22;9.40;1.00
2463;DHT22;1243;54.298;10.172;2023-02-20T11:02:59;9.40;1.00
2463;DHT22;1243;54.298;10.172;2023-02-20T11:05:29;9.40;1.00
2463;DHT22;1243;54.298;10.172;2023-02-20T11:07:55;9.50;1.00
2463;DHT22;1243;54.298;10.172;2023-02-20T11:10:21;9.40;1.00
2463;DHT22;1243;54.298;10.172;2023-02-20T11:12:52;9.40;1.00
2463;DHT22;1243;54.298;10.172;2023-02-20T11:15:21;9.40;1.00
2463;DHT22;1243;54.298;10.172;2023-02-20T11:17:53;9.40;1.00
2463;DHT22;1243;54.298;10.172;2023-02-20T11:20:41;9.50;1.00
2463;DHT22;1243;54.298;10.172;2023-02-20T11:23:07;9.60;1.00
2463;DHT22;1243;54.298;10.172;2023-02-20T11:25:38;9.60;1.00
2463;DHT22;1243;54.298;10.172;2023-02-20T11:28:20;9.50;1.00
2463;DHT22;1243;54.298;10.172;2023-02-20T11:30:49;9.50;1.00
2463;DHT22;1243;54.298;10.172;2023-02-20T11:33:21;9.60;1.00
2463;DHT22;1243;54.298;10.172;2023-02-20T11:36:18;9.50;1.00
2463;DHT22;1243;54.298;10.172;2023-02-20T11:38:48;9.60;1.00
2463;DHT22;1243;54.298;10.172;2023-02-20T11:41:47;9.60;1.00
2463;DHT22;1243;54.298;10.172;2023-02-20T11:44:23;9.60;1.00
2463;DHT22;1243;54.298;10.172;2023-02-20T11:47:18;9.60;1.00
2463;DHT22;1243;54.298;10.172;2023-02-20T11:49:46;9.60;1.00
2463;DHT22;1243;54.298;10.172;2023-02-20T11:52:16;9.60;1.00
2463;DHT22;1243;54.298;10.172;2023-02-20T11:54:42;9.60;1.00
2463;DHT22;1243;54.298;10.172;2023-02-20T11:59:42;9.60;1.00
2463;DHT22;1243;54.298;10.172;2023-02-20T12:02:28;9.60;1.00
2463;DHT22;1243;54.298;10.172;2023-02-20T12:07:33;9.60;1.00
2463;DHT22;1243;54.298;10.172;2023-02-20T12:12:56;9.60;1.00
2463;DHT22;1243;54.298;10.172;2023-02-20T12:15:24;9.70;1.00
2463;DHT22;1243;54.298;10.172;2023-02-20T12:20:23;9.70;1.00
2463;DHT22;1243;54.298;10.172;2023-02-20T12:23:26;9.70;1.00
2463;DHT22;1243;54.298;10.172;2023-02-20T12:29:14;9.80;1.00
2463;DHT22;1243;54.298;10.172;2023-02-20T12:34:58;9.80;1.00
2463;DHT22;1243;54.298;10.172;2023-02-20T12:45:39;9.80;1.00
2463;DHT22;1243;54.298;10.172;2023-02-20T12:48:30;9.80;1.00
2463;DHT22;1243;54.298;10.172;2023-02-20T12:57:25;9.80;1.00
2463;DHT22;1243;54.298;10.172;2023-02-20T13:00:01;9.80;1.00
2463;DHT22;1243;54.298;10.172;2023-02-20T13:02:44;9.80;1.00
2463;DHT22;1243;54.298;10.172;2023-02-20T13:05:13;9.70;1.00
2463;DHT22;1243;54.298;10.172;2023-02-20T13:07:56;9.70;1.00
2463;DHT22;1243;54.298;10.172;2023-02-20T13:10:26;9.60;1.00
2463;DHT22;1243;54.298;10.172;2023-02-20T13:12:53;9.50;1.00
2463;DHT22;1243;54.298;10.172;2023-02-20T13:18:39;9.40;1.00
2463;DHT22;1243;54.298;10.172;2023-02-20T13:21:16;9.20;1.00
2463;DHT22;1243;54.298;10.172;2023-02-20T13:23:42;9.20;1.00
2463;DHT22;1243;54.298;10.172;2023-02-20T13:29:17;9.10;8.80
2463;DHT22;1243;54.298;10.172;2023-02-20T13:31:57;9.10;24.20
2463;DHT22;1243;54.298;10.172;2023-02-20T13:34:39;9.10;40.00
2463;DHT22;1243;54.298;10.172;2023-02-20T13:38:10;9.10;64.20
2463;DHT22;1243;54.298;10.172;2023-02-20T13:45:39;9.10;99.90
2463;DHT22;1243;54.298;10.172;2023-02-20T13:54:21;9.10;99.90
2463;DHT22;1243;54.298;10.172;2023-02-20T13:56:56;9.10;99.90
2463;DHT22;1243;54.298;10.172;2023-02-20T13:59:26;9.00;99.90
2463;DHT22;1243;54.298;10.172;2023-02-20T14:02:19;9.00;99.90
2463;DHT22;1243;54.298;10.172;2023-02-20T14:05:04;9.00;99.90
2463;DHT22;1243;54.298;10.172;2023-02-20T14:07:42;9.00;99.90
2463;DHT22;1243;54.298;10.172;2023-02-20T14:12:40;9.00;99.90
2463;DHT22;1243;54.298;10.172;2023-02-20T14:15:06;8.90;99.90
2463;DHT22;1243;54.298;10.172;2023-02-20T14:17:33;8.90;99.90
2463;DHT22;1243;54.298;10.172;2023-02-20T14:20:10;8.90;99.90
2463;DHT22;1243;54.298;10.172;2023-02-20T14:22:40;8.90;99.90
2463;DHT22;1243;54.298;10.172;2023-02-20T14:25:19;8.80;99.90
2463;DHT22;1243;54.298;10.172;2023-02-20T14:27:47;8.80;99.90
2463;DHT22;1243;54.298;10.172;2023-02-20T14:30:19;8.70;99.90
2463;DHT22;1243;54.298;10.172;2023-02-20T14:32:55;8.80;99.90
2463;DHT22;1243;54.298;10.172;2023-02-20T14:35:41;8.80;99.90
2463;DHT22;1243;54.298;10.172;2023-02-20T14:38:29;8.70;99.90
2463;DHT22;1243;54.298;10.172;2023-02-20T14:40:57;8.70;99.90
2463;DHT22;1243;54.298;10.172;2023-02-20T14:43:25;8.70;99.90
2463;DHT22;1243;54.298;10.172;2023-02-20T14:46:22;8.70;99.90
2463;DHT22;1243;54.298;10.172;2023-02-20T14:48:48;8.70;99.90
2463;DHT22;1243;54.298;10.172;2023-02-20T14:51:23;8.70;99.90
2463;DHT22;1243;54.298;10.172;2023-02-20T14:56:37;8.70;99.90
2463;DHT22;1243;54.298;10.172;2023-02-20T15:01:52;8.70;99.90
2463;DHT22;1243;54.298;10.172;2023-02-20T15:04:19;8.70;99.90
2463;DHT22;1243;54.298;10.172;2023-02-20T15:06:47;8.70;99.90
2463;DHT22;1243;54.298;10.172;2023-02-20T15:09:14;8.70;1.00
2463;DHT22;1243;54.298;10.172;2023-02-20T15:11:52;8.70;1.00
2463;DHT22;1243;54.298;10.172;2023-02-20T15:14:30;8.70;1.00
2463;DHT22;1243;54.298;10.172;2023-02-20T15:19:39;8.70;1.00
2463;DHT22;1243;54.298;10.172;2023-02-20T15:22:05;8.70;1.00
2463;DHT22;1243;54.298;10.172;2023-02-20T15:24:46;8.70;1.00
2463;DHT22;1243;54.298;10.172;2023-02-20T15:27:22;8.70;1.00
2463;DHT22;1243;54.298;10.172;2023-02-20T15:30:15;8.70;1.00
2463;DHT22;1243;54.298;10.172;2023-02-20T15:32:42;8.80;1.00
2463;DHT22;1243;54.298;10.172;2023-02-20T15:35:17;8.70;1.00
2463;DHT22;1243;54.298;10.172;2023-02-20T15:37:44;8.70;1.00
2463;DHT22;1243;54.298;10.172;2023-02-20T15:42:45;8.80;1.00
2463;DHT22;1243;54.298;10.172;2023-02-20T15:45:13;8.70;1.00
2463;DHT22;1243;54.298;10.172;2023-02-20T15:47:38;8.70;1.00
2463;DHT22;1243;54.298;10.172;2023-02-20T15:50:05;8.70;1.00
2463;DHT22;1243;54.298;10.172;2023-02-20T15:52:30;8.70;1.00
2463;DHT22;1243;54.298;10.172;2023-02-20T15:54:57;8.70;1.00
2463;DHT22;1243;54.298;10.172;2023-02-20T15:57:23;8.70;1.00
2463;DHT22;1243;54.298;10.172;2023-02-20T15:59:49;8.70;1.00
2463;DHT22;1243;54.298;10.172;2023-02-20T16:02:19;8.70;1.00
2463;DHT22;1243;54.298;10.172;2023-02-20T16:04:49;8.70;1.00
2463;DHT22;1243;54.298;10.172;2023-02-20T16:07:16;8.70;1.00
2463;DHT22;1243;54.298;10.172;2023-02-20T16:09:42;8.70;1.00
2463;DHT22;1243;54.298;10.172;2023-02-20T16:12:23;8.70;1.00
2463;DHT22;1243;54.298;10.172;2023-02-20T16:14:50;8.70;1.00
2463;DHT22;1243;54.298;10.172;2023-02-20T16:17:28;8.70;1.00
2463;DHT22;1243;54.298;10.172;2023-02-20T16:19:56;8.80;1.00
2463;DHT22;1243;54.298;10.172;2023-02-20T16:22:22;8.70;1.00
2463;DHT22;1243;54.298;10.172;2023-02-20T16:24:48;8.70;1.00
2463;DHT22;1243;54.298;10.172;2023-02-20T16:27:25;8.70;1.00
2463;DHT22;1243;54.298;10.172;2023-02-20T16:29:53;8.70;1.00
2463;DHT22;1243;54.298;10.172;2023-02-20T16:32:27;8.70;1.00
2463;DHT22;1243;54.298;10.172;2023-02-20T16:34:55;8.70;1.00
2463;DHT22;1243;54.298;10.172;2023-02-20T16:37:22;8.70;1.00
2463;DHT22;1243;54.298;10.172;2023-02-20T16:39:47;8.70;1.00
2463;DHT22;1243;54.298;10.172;2023-02-20T16:44:53;8.70;1.00
2463;DHT22;1243;54.298;10.172;2023-02-20T16:47:25;8.70;1.00
2463;DHT22;1243;54.298;10.172;2023-02-20T16:49:52;8.70;1.00
2463;DHT22;1243;54.298;10.172;2023-02-20T16:52:35;8.70;1.00
2463;DHT22;1243;54.298;10.172;2023-02-20T16:55:03;8.70;1.00
2463;DHT22;1243;54.298;10.172;2023-02-20T16:57:29;8.70;1.00
2463;DHT22;1243;54.298;10.172;2023-02-20T16:59:57;8.70;1.00
2463;DHT22;1243;54.298;10.172;2023-02-20T17:02:29;8.70;1.00
2463;DHT22;1243;54.298;10.172;2023-02-20T17:04:59;8.70;1.00
2463;DHT22;1243;54.298;10.172;2023-02-20T17:07:25;8.60;1.00
2463;DHT22;1243;54.298;10.172;2023-02-20T17:09:51;8.70;1.00
2463;DHT22;1243;54.298;10.172;2023-02-20T17:12:19;8.70;1.00
2463;DHT22;1243;54.298;10.172;2023-02-20T17:14:46;8.70;1.00
2463;DHT22;1243;54.298;10.172;2023-02-20T17:17:12;8.70;1.00
2463;DHT22;1243;54.298;10.172;2023-02-20T17:19:40;8.70;1.00
2463;DHT22;1243;54.298;10.172;2023-02-20T17:22:07;8.70;1.00
2463;DHT22;1243;54.298;10.172;2023-02-20T17:24:34;8.70;1.00
2463;DHT22;1243;54.298;10.172;2023-02-20T17:27:01;8.60;1.00
2463;DHT22;1243;54.298;10.172;2023-02-20T17:29:27;8.70;1.00
2463;DHT22;1243;54.298;10.172;2023-02-20T17:31:53;8.60;1.00
2463;DHT22;1243;54.298;10.172;2023-02-20T17:34:19;8.60;1.00
2463;DHT22;1243;54.298;10.172;2023-02-20T17:36:45;8.60;1.00
2463;DHT22;1243;54.298;10.172;2023-02-20T17:39:19;8.60;1.00
2463;DHT22;1243;54.298;10.172;2023-02-20T17:41:47;8.60;1.00
2463;DHT22;1243;54.298;10.172;2023-02-20T17:44:22;8.60;1.00
2463;DHT22;1243;54.298;10.172;2023-02-20T17:46:50;8.60;1.00
2463;DHT22;1243;54.298;10.172;2023-02-20T17:49:17;8.70;1.00
2463;DHT22;1243;54.298;10.172;2023-02-20T17:51:43;8.60;1.00
2463;DHT22;1243;54.298;10.172;2023-02-20T17:54:10;8.60;1.00
2463;DHT22;1243;54.298;10.172;2023-02-20T17:56:40;8.60;1.00
2463;DHT22;1243;54.298;10.172;2023-02-20T17:59:07;8.50;1.00
2463;DHT22;1243;54.298;10.172;2023-02-20T18:01:33;8.60;1.00
2463;DHT22;1243;54.298;10.172;2023-02-20T18:03:58;8.50;1.00
2463;DHT22;1243;54.298;10.172;2023-02-20T18:06:24;8.50;1.00
2463;DHT22;1243;54.298;10.172;2023-02-20T18:08:50;8.60;1.00
2463;DHT22;1243;54.298;10.172;2023-02-20T18:11:16;8.50;1.00
2463;DHT22;1243;54.298;10.172;2023-02-20T18:13:43;8.60;1.00
2463;DHT22;1243;54.298;10.172;2023-02-20T18:16:08;8.50;1.00
2463;DHT22;1243;54.298;10.172;2023-02-20T18:18:34;8.50;1.00
2463;DHT22;1243;54.298;10.172;2023-02-20T18:21:00;8.50;1.00
2463;DHT22;1243;54.298;10.172;2023-02-20T18:23:26;8.50;1.00
2463;DHT22;1243;54.298;10.172;2023-02-20T18:25:52;8.50;1.00
2463;DHT22;1243;54.298;10.172;2023-02-20T18:28:20;8.50;1.00
2463;DHT22;1243;54.298;10.172;2023-02-20T18:30:46;8.60;1.00
2463;DHT22;1243;54.298;10.172;2023-02-20T18:33:12;8.60;1.00
2463;DHT22;1243;54.298;10.172;2023-02-20T18:35:38;8.50;1.00
2463;DHT22;1243;54.298;10.172;2023-02-20T18:38:04;8.50;1.00
2463;DHT22;1243;54.298;10.172;2023-02-20T18:40:30;8.50;1.00
2463;DHT22;1243;54.298;10.172;2023-02-20T18:42:56;8.50;1.00
2463;DHT22;1243;54.298;10.172;2023-02-20T18:45:22;8.50;1.00